createdAt,value
2019-02-05T00:02:01.325Z,67.15
2019-02-05T00:04:33.062Z,67.39
2019-02-05T00:07:03.518Z,68.03
2019-02-05T00:09:33.298Z,67.89
2019-02-05T00:12:03.993Z,68.34
2019-02-05T00:14:33.598Z,68.88
2019-02-05T00:17:05.188Z,68.92
2019-02-05T00:19:35.143Z,69.47
2019-02-05T00:22:05.660Z,70.24
2019-02-05T00:24:35.273Z,70.44
2019-02-05T00:27:05.515Z,71.19
2019-02-05T00:29:35.716Z,71.23
2019-02-05T00:32:06.067Z,71.28
2019-02-05T00:34:37.576Z,71.22
2019-02-05T00:37:07.254Z,71.26
2019-02-05T00:39:37.421Z,71.67
2019-02-05T00:42:07.698Z,71.54
2019-02-05T00:44:37.553Z,71.91
2019-02-05T00:47:07.555Z,72.12
2019-02-05T00:49:37.750Z,72.62
2019-02-05T00:52:08.041Z,72.95
2019-02-05T00:54:38.185Z,73.59
2019-02-05T00:57:08.104Z,73.60
2019-02-05T00:59:37.747Z,73.67
2019-02-05T01:02:07.964Z,74.17
2019-02-05T01:04:38.358Z,74.97
2019-02-05T01:07:08.094Z,75.24
2019-02-05T01:09:39.396Z,75.73
2019-02-05T01:12:09.494Z,75.93
2019-02-05T01:14:39.627Z,76.23
2019-02-05T01:17:09.402Z,77.66
2019-02-05T01:19:39.887Z,78.00
2019-02-05T01:22:10.259Z,79.00
2019-02-05T01:24:40.380Z,79.00
2019-02-05T01:27:10.296Z,79.19
2019-02-05T01:29:40.281Z,79.70
2019-02-05T01:32:09.870Z,79.48
2019-02-05T01:34:39.797Z,79.39
2019-02-05T01:37:09.543Z,79.62
2019-02-05T01:39:39.774Z,79.64
2019-02-05T01:42:09.560Z,79.48
2019-02-05T01:44:39.272Z,79.47
2019-02-05T01:47:09.187Z,79.49
2019-02-05T01:49:39.361Z,79.44
2019-02-05T01:52:09.096Z,79.64
2019-02-05T01:54:39.239Z,79.76
2019-02-05T01:57:09.195Z,79.58
2019-02-05T01:59:39.060Z,79.57
2019-02-05T02:02:08.671Z,79.52
2019-02-05T02:04:38.212Z,79.45
2019-02-05T02:07:08.107Z,79.23
2019-02-05T02:09:37.679Z,79.31
2019-02-05T02:12:07.754Z,79.36
2019-02-05T02:14:37.507Z,79.52
2019-02-05T02:17:07.490Z,79.86
2019-02-05T02:19:37.442Z,79.97
2019-02-05T02:22:07.238Z,79.92
2019-02-05T02:24:37.271Z,79.78
2019-02-05T02:27:07.575Z,79.71
2019-02-05T02:29:37.621Z,79.70
2019-02-05T02:32:08.208Z,79.80
2019-02-05T02:34:37.774Z,79.71
2019-02-05T02:37:07.300Z,79.51
2019-02-05T02:39:37.315Z,79.66
2019-02-05T02:42:07.220Z,79.73
2019-02-05T02:44:37.064Z,79.82
2019-02-05T02:47:07.272Z,79.89
2019-02-05T02:49:38.023Z,79.81
2019-02-05T02:52:07.926Z,79.97
2019-02-05T02:54:37.628Z,79.99
2019-02-05T02:57:07.482Z,79.89
2019-02-05T02:59:37.193Z,79.90
2019-02-05T03:02:07.007Z,79.82
2019-02-05T03:04:36.732Z,79.73
2019-02-05T03:07:06.720Z,79.92
2019-02-05T03:09:36.529Z,79.92
2019-02-05T03:12:06.231Z,79.81
2019-02-05T03:14:36.027Z,79.84
2019-02-05T03:17:05.728Z,79.95
2019-02-05T03:19:35.280Z,79.93
2019-02-05T03:22:04.817Z,79.77
2019-02-05T03:24:34.398Z,79.59
2019-02-05T03:27:03.897Z,79.66
2019-02-05T03:29:33.461Z,79.66
2019-02-05T03:32:03.076Z,79.77
2019-02-05T03:34:32.893Z,79.82
2019-02-05T03:37:02.494Z,79.70
2019-02-05T03:39:32.063Z,79.75
2019-02-05T03:42:01.605Z,79.74
2019-02-05T03:44:31.163Z,79.80
2019-02-05T03:47:00.774Z,79.93
2019-02-05T03:49:30.550Z,80.21
2019-02-05T03:52:04.232Z,80.31
2019-02-05T03:55:02.218Z,80.02
2019-02-05T03:57:42.073Z,80.32
2019-02-05T04:00:24.263Z,80.33
2019-02-05T04:03:22.210Z,80.25
2019-02-05T04:06:14.110Z,80.20
2019-02-05T04:08:59.881Z,80.42
2019-02-05T04:11:48.923Z,80.29
2019-02-05T04:14:31.925Z,80.44
2019-02-05T04:17:38.800Z,80.36
2019-02-05T04:20:29.052Z,80.19
2019-02-05T04:23:24.219Z,80.19
2019-02-05T04:26:22.113Z,80.27
2019-02-05T04:29:14.326Z,80.31
2019-02-05T04:32:37.982Z,80.52
2019-02-05T04:35:47.436Z,80.64
2019-02-05T04:38:30.333Z,80.62
2019-02-05T04:41:10.349Z,80.68
2019-02-05T04:44:08.576Z,80.69
2019-02-05T04:47:07.976Z,80.71
2019-02-05T04:50:08.938Z,80.75
2019-02-05T04:53:01.072Z,80.75
2019-02-05T04:55:35.307Z,80.51
2019-02-05T05:01:14.202Z,80.60
2019-02-05T05:03:56.592Z,80.60
2019-02-05T05:06:51.594Z,80.42
2019-02-05T05:09:34.556Z,80.51
2019-02-05T05:12:04.272Z,80.49
2019-02-05T05:14:33.809Z,80.53
2019-02-05T05:17:03.666Z,80.35
2019-02-05T05:19:33.514Z,80.57
2019-02-05T05:22:04.078Z,80.47
2019-02-05T05:24:37.183Z,80.29
2019-02-05T05:27:06.964Z,80.15
2019-02-05T05:29:36.694Z,80.29
2019-02-05T05:32:06.460Z,80.32
2019-02-05T05:34:36.047Z,80.46
2019-02-05T05:37:03.997Z,80.42
2019-02-05T05:39:33.556Z,80.43
2019-02-05T05:42:03.090Z,80.56
2019-02-05T05:44:32.873Z,80.63
2019-02-05T05:47:02.824Z,80.80
2019-02-05T05:49:32.425Z,80.86
2019-02-05T05:52:01.983Z,80.99
2019-02-05T05:54:31.520Z,81.16
2019-02-05T05:57:02.370Z,81.01
2019-02-05T05:59:31.887Z,80.92
2019-02-05T06:02:01.495Z,80.67
2019-02-05T06:04:31.030Z,80.61
2019-02-05T06:07:00.563Z,80.75
2019-02-05T06:09:30.365Z,80.73
2019-02-05T06:11:59.971Z,80.67
2019-02-05T06:14:29.567Z,80.80
2019-02-05T06:16:59.104Z,80.65
2019-02-05T06:19:28.826Z,80.64
2019-02-05T06:21:58.396Z,80.63
2019-02-05T06:24:27.936Z,80.65
2019-02-05T06:26:57.477Z,80.59
2019-02-05T06:29:27.108Z,80.88
2019-02-05T06:31:56.645Z,80.80
2019-02-05T06:34:26.369Z,80.82
2019-02-05T06:36:55.921Z,80.66
2019-02-05T06:39:25.553Z,80.64
2019-02-05T06:41:55.149Z,80.91
2019-02-05T06:44:24.941Z,80.83
2019-02-05T06:46:54.694Z,81.03
2019-02-05T06:49:24.608Z,80.90
2019-02-05T06:51:54.158Z,81.26
2019-02-05T06:54:25.244Z,81.77
2019-02-05T06:56:56.357Z,81.64
2019-02-05T06:59:25.947Z,81.50
2019-02-05T07:01:55.488Z,81.46
2019-02-05T07:04:25.389Z,81.45
2019-02-05T07:06:55.006Z,81.49
2019-02-05T07:09:24.704Z,81.40
2019-02-05T07:11:55.003Z,81.59
2019-02-05T07:14:24.601Z,81.77
2019-02-05T07:16:55.298Z,81.70
2019-02-05T07:19:25.323Z,81.87
2019-02-05T07:21:54.943Z,81.94
2019-02-05T07:24:24.515Z,82.22
2019-02-05T07:26:54.077Z,82.40
2019-02-05T07:29:23.679Z,82.34
2019-02-05T07:31:53.294Z,82.35
2019-02-05T07:34:22.849Z,82.19
2019-02-05T07:36:53.716Z,82.15
2019-02-05T07:39:23.329Z,82.30
2019-02-05T07:41:52.887Z,82.42
2019-02-05T07:44:22.461Z,82.60
2019-02-05T07:46:52.070Z,82.64
2019-02-05T07:49:21.627Z,82.80
2019-02-05T07:51:52.279Z,83.02
2019-02-05T07:54:21.867Z,82.85
2019-02-05T07:56:51.440Z,82.88
2019-02-05T07:59:21.036Z,82.95
2019-02-05T08:01:50.650Z,82.79
2019-02-05T08:04:20.538Z,82.83
2019-02-05T08:06:50.650Z,82.93
2019-02-05T08:09:20.553Z,82.71
2019-02-05T08:11:50.106Z,82.91
2019-02-05T08:14:19.799Z,82.82
2019-02-05T08:16:49.406Z,82.88
2019-02-05T08:19:18.991Z,82.96
2019-02-05T08:21:48.577Z,82.85
2019-02-05T08:24:18.135Z,82.78
2019-02-05T08:26:47.702Z,82.74
2019-02-05T08:29:21.823Z,82.96
2019-02-05T08:31:48.573Z,82.92
2019-02-05T08:34:18.164Z,82.69
2019-02-05T08:36:47.782Z,82.56
2019-02-05T08:39:18.021Z,82.51
2019-02-05T08:41:47.740Z,82.58
2019-02-05T08:44:17.603Z,82.58
2019-02-05T08:46:47.180Z,82.48
2019-02-05T08:49:16.767Z,82.59
2019-02-05T08:51:46.356Z,82.58
2019-02-05T08:54:15.958Z,82.58
2019-02-05T08:56:45.524Z,82.54
2019-02-05T08:59:15.258Z,82.64
2019-02-05T09:01:44.904Z,82.54
2019-02-05T09:04:14.605Z,82.85
2019-02-05T09:06:44.179Z,82.70
2019-02-05T09:09:13.756Z,82.70
2019-02-05T09:11:43.348Z,82.55
2019-02-05T09:14:14.146Z,82.63
2019-02-05T09:16:43.997Z,82.82
2019-02-05T09:19:13.584Z,82.64
2019-02-05T09:21:43.157Z,82.42
2019-02-05T09:24:12.770Z,82.30
2019-02-05T09:26:42.369Z,82.20
2019-02-05T09:29:12.035Z,82.10
2019-02-05T09:31:42.001Z,82.32
2019-02-05T09:34:11.565Z,82.54
2019-02-05T09:36:41.147Z,82.55
2019-02-05T09:39:10.741Z,82.46
2019-02-05T09:41:40.375Z,82.44
2019-02-05T09:44:11.577Z,82.36
2019-02-05T09:46:41.377Z,82.33
2019-02-05T09:49:11.050Z,82.46
2019-02-05T09:51:40.632Z,82.36
2019-02-05T09:54:11.959Z,82.29
2019-02-05T09:56:41.563Z,82.10
2019-02-05T09:59:11.189Z,81.84
2019-02-05T10:01:40.898Z,81.76
2019-02-05T10:04:10.710Z,81.66
2019-02-05T10:06:43.255Z,81.83
2019-02-05T10:09:12.803Z,81.65
2019-02-05T10:11:42.674Z,81.62
2019-02-05T10:14:12.303Z,81.68
2019-02-05T10:16:43.354Z,81.53
2019-02-05T10:19:13.635Z,81.37
2019-02-05T10:21:43.279Z,81.28
2019-02-05T10:27:05.374Z,81.17
2019-02-05T10:29:35.331Z,80.87
2019-02-05T10:32:05.236Z,80.71
2019-02-05T10:34:34.823Z,80.42
2019-02-05T10:37:04.378Z,80.81
2019-02-05T10:39:33.946Z,80.89
2019-02-05T10:42:03.572Z,80.78
2019-02-05T10:44:33.158Z,80.67
2019-02-05T10:47:02.868Z,80.79
2019-02-05T10:49:32.481Z,80.48
2019-02-05T10:52:02.049Z,80.26
2019-02-05T10:54:31.610Z,80.11
2019-02-05T10:57:02.090Z,80.00
2019-02-05T10:59:31.692Z,80.01
2019-02-05T11:02:01.422Z,79.82
2019-02-05T11:04:30.986Z,79.73
2019-02-05T11:07:00.567Z,80.01
2019-02-05T11:09:30.151Z,79.84
2019-02-05T11:11:59.744Z,79.98
2019-02-05T11:14:29.302Z,79.92
2019-02-05T11:16:59.156Z,79.85
2019-02-05T11:19:28.730Z,79.88
2019-02-05T11:21:58.316Z,79.68
2019-02-05T11:24:27.883Z,79.55
2019-02-05T11:26:57.465Z,79.25
2019-02-05T11:29:27.364Z,79.17
2019-02-05T11:31:56.985Z,79.19
2019-02-05T11:34:26.649Z,79.04
2019-02-05T11:36:57.887Z,78.88
2019-02-05T11:39:27.470Z,78.80
2019-02-05T11:41:57.466Z,78.80
2019-02-05T11:44:27.034Z,79.03
2019-02-05T11:46:56.623Z,78.83
2019-02-05T11:49:26.478Z,78.80
2019-02-05T11:51:56.063Z,78.77
2019-02-05T11:54:25.614Z,78.54
2019-02-05T11:56:55.219Z,78.40
2019-02-05T11:59:24.793Z,78.55
2019-02-05T12:01:55.885Z,78.59
2019-02-05T12:04:25.876Z,78.52
2019-02-05T12:06:55.481Z,78.25
2019-02-05T12:09:25.969Z,78.29
2019-02-05T12:11:55.530Z,78.27
2019-02-05T12:14:25.119Z,78.03
2019-02-05T12:16:59.347Z,77.97
2019-02-05T12:19:28.939Z,77.70
2019-02-05T12:21:58.539Z,78.01
2019-02-05T12:24:30.387Z,78.04
2019-02-05T12:26:59.778Z,77.87
2019-02-05T12:29:29.452Z,77.74
2019-02-05T12:31:59.222Z,77.73
2019-02-05T12:34:30.357Z,77.70
2019-02-05T12:37:00.416Z,77.68
2019-02-05T12:39:30.777Z,77.57
2019-02-05T12:42:01.403Z,77.58
2019-02-05T12:44:31.051Z,77.48
2019-02-05T12:47:00.663Z,77.36
2019-02-05T12:49:30.249Z,77.21
2019-02-05T12:51:59.811Z,77.03
2019-02-05T12:54:29.406Z,77.25
2019-02-05T12:57:02.029Z,77.20
2019-02-05T12:59:34.922Z,77.10
2019-02-05T13:02:04.826Z,77.12
2019-02-05T13:04:34.696Z,77.08
2019-02-05T13:07:05.065Z,77.00
2019-02-05T13:09:34.613Z,77.10
2019-02-05T13:12:06.807Z,77.22
2019-02-05T13:14:36.431Z,77.12
2019-02-05T13:17:06.279Z,77.26
2019-02-05T13:19:35.825Z,77.36
2019-02-05T13:22:05.503Z,77.70
2019-02-05T13:24:37.104Z,77.81
2019-02-05T13:27:06.770Z,77.93
2019-02-05T13:29:36.349Z,77.98
2019-02-05T13:32:06.420Z,78.00
2019-02-05T13:34:39.029Z,77.88
2019-02-05T13:37:08.717Z,77.71
2019-02-05T13:39:38.294Z,77.76
2019-02-05T13:42:07.961Z,77.67
2019-02-05T13:44:37.543Z,77.96
2019-02-05T13:47:07.173Z,78.25
2019-02-05T13:49:36.762Z,78.19
2019-02-05T13:52:06.413Z,78.01
2019-02-05T13:54:37.382Z,78.04
2019-02-05T13:57:07.025Z,77.96
2019-02-05T13:59:39.614Z,78.14
2019-02-05T14:02:09.222Z,78.03
2019-02-05T14:04:41.956Z,78.13
2019-02-05T14:07:11.543Z,78.31
2019-02-05T14:09:41.125Z,78.40
2019-02-05T14:12:12.581Z,78.68
2019-02-05T14:14:46.893Z,78.44
2019-02-05T14:17:16.513Z,78.16
2019-02-05T14:19:46.068Z,78.17
2019-02-05T14:22:15.640Z,78.06
2019-02-05T14:24:45.290Z,78.09
2019-02-05T14:27:14.878Z,78.36
2019-02-05T14:29:44.449Z,78.45
2019-02-05T14:32:14.111Z,78.51
2019-02-05T14:34:43.717Z,78.33
2019-02-05T14:37:14.651Z,78.19
2019-02-05T14:39:44.494Z,78.10
2019-02-05T14:42:14.433Z,78.25
2019-02-05T14:44:44.000Z,78.44
2019-02-05T14:47:13.591Z,78.33
2019-02-05T14:49:43.159Z,78.14
2019-02-05T14:52:12.721Z,78.07
2019-02-05T14:54:42.373Z,78.03
2019-02-05T14:57:12.385Z,77.95
2019-02-05T14:59:42.290Z,78.06
2019-02-05T15:02:11.866Z,78.27
2019-02-05T15:04:41.452Z,78.10
2019-02-05T15:07:11.010Z,77.91
2019-02-05T15:09:40.608Z,77.87
2019-02-05T15:12:11.335Z,77.84
2019-02-05T15:14:40.937Z,77.82
2019-02-05T15:17:10.515Z,77.84
2019-02-05T15:19:40.093Z,77.79
2019-02-05T15:22:09.727Z,77.77
2019-02-05T15:24:41.007Z,77.85
2019-02-05T15:27:10.658Z,77.93
2019-02-05T15:29:40.446Z,78.00
2019-02-05T15:32:11.656Z,78.08
2019-02-05T15:34:41.236Z,77.98
2019-02-05T15:37:10.797Z,78.08
2019-02-05T15:39:40.659Z,78.19
2019-02-05T15:42:10.251Z,78.29
2019-02-05T15:44:39.824Z,78.23
2019-02-05T15:47:09.387Z,78.26
2019-02-05T15:49:38.962Z,78.29
2019-02-05T15:52:08.535Z,78.33
2019-02-05T15:54:38.124Z,78.41
2019-02-05T15:57:07.695Z,78.52
2019-02-05T15:59:37.259Z,78.62
2019-02-05T16:02:07.163Z,78.58
2019-02-05T16:04:37.006Z,78.49
2019-02-05T16:07:06.746Z,78.39
2019-02-05T16:09:36.313Z,78.47
2019-02-05T16:12:06.063Z,78.44
2019-02-05T16:14:35.637Z,78.48
2019-02-05T16:17:07.190Z,78.61
2019-02-05T16:19:36.822Z,78.43
2019-02-05T16:22:06.518Z,78.36
2019-02-05T16:24:36.246Z,78.46
2019-02-05T16:27:10.323Z,78.54
2019-02-05T16:29:39.915Z,78.61
2019-02-05T16:32:17.362Z,78.63
2019-02-05T16:34:40.803Z,78.52
2019-02-05T16:37:10.665Z,78.46
2019-02-05T16:39:40.270Z,78.43
2019-02-05T16:42:10.102Z,78.39
2019-02-05T16:44:39.660Z,78.27
2019-02-05T16:47:09.229Z,78.28
2019-02-05T16:49:38.804Z,78.27
2019-02-05T16:52:08.565Z,78.21
2019-02-05T16:54:38.599Z,78.22
2019-02-05T16:57:08.945Z,78.26
2019-02-05T16:59:38.581Z,78.34
2019-02-05T17:02:09.588Z,78.24
2019-02-05T17:04:39.227Z,78.16
2019-02-05T17:07:09.841Z,78.16
2019-02-05T17:09:40.355Z,78.19
2019-02-05T17:12:10.521Z,78.26
2019-02-05T17:14:41.420Z,78.28
2019-02-05T17:17:12.918Z,78.37
2019-02-05T17:19:43.027Z,78.53
2019-02-05T17:22:12.584Z,78.60
2019-02-05T17:24:42.142Z,78.52
2019-02-05T17:27:12.021Z,78.42
2019-02-05T17:29:41.595Z,78.37
2019-02-05T17:32:11.247Z,78.25
2019-02-05T17:34:40.895Z,78.12
2019-02-05T17:37:10.465Z,78.06
2019-02-05T17:39:40.147Z,78.01
2019-02-05T17:42:09.734Z,77.90
2019-02-05T17:44:39.303Z,77.77
2019-02-05T17:47:10.670Z,77.57
2019-02-05T17:49:40.228Z,77.62
2019-02-05T17:52:09.913Z,77.55
2019-02-05T17:54:40.421Z,77.49
2019-02-05T17:57:09.974Z,77.63
2019-02-05T17:59:39.543Z,77.63
2019-02-05T18:02:09.668Z,77.73
2019-02-05T18:04:39.242Z,77.79
2019-02-05T18:07:08.823Z,77.75
2019-02-05T18:09:38.419Z,77.74
2019-02-05T18:12:08.066Z,77.76
2019-02-05T18:14:37.657Z,77.66
2019-02-05T18:17:08.247Z,77.74
2019-02-05T18:19:37.853Z,77.61
2019-02-05T18:22:08.166Z,77.72
2019-02-05T18:24:37.726Z,77.71
2019-02-05T18:27:07.560Z,77.62
2019-02-05T18:29:37.381Z,77.59
2019-02-05T18:32:07.891Z,77.54
2019-02-05T18:34:37.964Z,77.56
2019-02-05T18:37:08.012Z,77.60
2019-02-05T18:39:39.870Z,77.87
2019-02-05T18:42:08.995Z,77.79
2019-02-05T18:44:39.310Z,78.11
2019-02-05T18:47:10.724Z,78.03
2019-02-05T18:49:44.779Z,77.95
2019-02-05T18:52:16.535Z,77.79
2019-02-05T18:54:48.181Z,77.69
2019-02-05T18:57:18.463Z,77.74
2019-02-05T18:59:48.673Z,77.71
2019-02-05T19:02:18.825Z,77.64
2019-02-05T19:04:48.984Z,77.67
2019-02-05T19:07:18.777Z,77.71
2019-02-05T19:09:48.473Z,77.74
2019-02-05T19:12:18.598Z,77.74
2019-02-05T19:14:48.442Z,77.77
2019-02-05T19:17:18.303Z,77.75
2019-02-05T19:19:48.032Z,77.75
2019-02-05T19:22:18.056Z,77.77
2019-02-05T19:24:50.054Z,77.81
2019-02-05T19:27:21.827Z,78.08
2019-02-05T19:29:51.594Z,78.17
2019-02-05T19:32:22.765Z,78.18
2019-02-05T19:34:52.497Z,78.13
2019-02-05T19:37:22.479Z,78.12
2019-02-05T19:39:52.753Z,78.20
2019-02-05T19:42:22.682Z,78.21
2019-02-05T19:44:55.323Z,78.17
2019-02-05T19:47:26.988Z,78.10
2019-02-05T19:49:57.157Z,78.16
2019-02-05T19:52:28.365Z,78.22
2019-02-05T19:55:00.384Z,78.37
2019-02-05T19:57:30.583Z,78.51
2019-02-05T20:00:01.171Z,78.61
2019-02-05T20:02:32.491Z,78.68
2019-02-05T20:05:02.545Z,78.72
2019-02-05T20:07:36.340Z,78.88
2019-02-05T20:10:09.943Z,79.02
2019-02-05T20:12:40.821Z,79.14
2019-02-05T20:15:15.197Z,79.24
2019-02-05T20:17:45.161Z,79.29
2019-02-05T20:20:22.659Z,79.29
2019-02-05T20:22:53.017Z,79.31
2019-02-05T20:25:23.940Z,79.29
2019-02-05T20:27:53.688Z,79.29
2019-02-05T20:30:25.837Z,79.28
2019-02-05T20:32:55.993Z,79.30
2019-02-05T20:35:26.195Z,79.33
2019-02-05T20:37:57.066Z,79.29
2019-02-05T20:40:28.043Z,79.29
2019-02-05T20:42:58.678Z,79.30
2019-02-05T20:45:31.806Z,79.40
2019-02-05T20:48:01.544Z,79.54
2019-02-05T20:50:32.979Z,79.63
2019-02-05T20:53:13.066Z,79.76
2019-02-05T20:55:35.750Z,79.92
2019-02-05T20:58:06.202Z,80.06
2019-02-05T21:00:35.785Z,80.10
2019-02-05T21:03:05.510Z,80.20
2019-02-05T21:05:35.123Z,80.32
2019-02-05T21:08:04.799Z,80.58
2019-02-05T21:10:36.225Z,80.89
2019-02-05T21:13:06.397Z,80.99
2019-02-05T21:15:36.386Z,80.96
2019-02-05T21:18:07.042Z,81.06
2019-02-05T21:20:38.531Z,81.06
2019-02-05T21:23:15.364Z,81.09
2019-02-05T21:25:45.255Z,81.10
2019-02-05T21:28:16.756Z,81.17
2019-02-05T21:30:47.595Z,81.15
2019-02-05T21:33:19.008Z,81.22
2019-02-05T21:35:49.289Z,81.24
2019-02-05T21:38:18.844Z,81.28
2019-02-05T21:40:48.404Z,81.35
2019-02-05T21:43:22.375Z,81.39
2019-02-05T21:45:52.198Z,81.40
2019-02-05T21:48:22.160Z,81.44
2019-02-05T21:50:51.730Z,81.45
2019-02-05T21:53:21.324Z,81.44
2019-02-05T21:55:51.144Z,81.56
2019-02-05T21:58:20.734Z,81.65
2019-02-05T22:00:50.311Z,81.74
2019-02-05T22:03:19.872Z,81.74
2019-02-05T22:05:49.516Z,81.72
2019-02-05T22:08:19.641Z,81.76
2019-02-05T22:10:49.784Z,81.78
2019-02-05T22:13:19.447Z,81.76
2019-02-05T22:15:49.358Z,81.65
2019-02-05T22:18:18.931Z,81.60
2019-02-05T22:20:48.501Z,81.54
2019-02-05T22:23:18.256Z,81.60
2019-02-05T22:25:47.827Z,81.55
2019-02-05T22:28:20.466Z,81.45
2019-02-05T22:30:48.707Z,81.43
2019-02-05T22:33:18.267Z,81.45
2019-02-05T22:35:47.811Z,81.31
2019-02-05T22:38:17.402Z,81.15
2019-02-05T22:40:46.983Z,81.04
2019-02-05T22:43:16.752Z,81.00
2019-02-05T22:45:46.307Z,80.88
2019-02-05T22:48:15.871Z,80.80
2019-02-05T22:50:47.583Z,80.69
2019-02-05T22:53:17.407Z,80.67
2019-02-05T22:55:47.294Z,80.68
2019-02-05T22:58:16.869Z,80.60
2019-02-05T23:01:05.780Z,80.48
2019-02-05T23:03:42.401Z,80.44
2019-02-05T23:06:34.735Z,80.34
2019-02-05T23:09:20.955Z,80.27
2019-02-05T23:12:06.663Z,80.17
2019-02-05T23:14:36.224Z,80.11
2019-02-05T23:17:06.253Z,80.09
2019-02-05T23:19:35.911Z,80.15
2019-02-05T23:22:05.615Z,80.13
2019-02-05T23:24:35.133Z,80.17
2019-02-05T23:27:04.774Z,80.22
2019-02-05T23:29:34.374Z,80.25
2019-02-05T23:32:04.163Z,80.26
2019-02-05T23:34:33.791Z,80.33
2019-02-05T23:37:04.771Z,80.45
2019-02-05T23:39:34.324Z,80.53
2019-02-05T23:42:04.109Z,80.53
2019-02-05T23:44:33.675Z,80.44
2019-02-05T23:47:03.201Z,80.47
2019-02-05T23:49:32.822Z,80.52
2019-02-05T23:52:02.548Z,80.55
2019-02-05T23:54:32.091Z,80.60
2019-02-05T23:57:02.007Z,80.66
2019-02-05T23:59:31.559Z,80.80
